createdAt,value
2022-09-23T00:14:41.011Z,82.89
2022-09-23T00:19:44.280Z,83.38
2022-09-23T00:24:48.743Z,83.43
2022-09-23T00:29:53.503Z,83.79
2022-09-23T00:34:56.520Z,83.71
2022-09-23T00:40:01.743Z,83.84
2022-09-23T00:45:07.888Z,83.99
2022-09-23T00:50:16.077Z,83.76
2022-09-23T00:55:25.302Z,83.82
2022-09-23T01:00:28.202Z,84.13
2022-09-23T01:05:31.265Z,84.03
2022-09-23T01:10:44.492Z,83.97
2022-09-23T01:15:51.551Z,84.07
2022-09-23T01:20:59.465Z,84.09
2022-09-23T01:26:21.373Z,84.30
2022-09-23T01:31:30.901Z,84.32
2022-09-23T01:36:39.420Z,84.48
2022-09-23T01:41:54.346Z,84.45
2022-09-23T01:47:02.949Z,84.92
2022-09-23T01:52:15.952Z,84.66
2022-09-23T01:57:25.005Z,84.82
2022-09-23T02:02:34.093Z,84.84
2022-09-23T02:07:44.325Z,85.10
2022-09-23T02:12:49.900Z,85.24
2022-09-23T02:18:00.215Z,85.12
2022-09-23T02:23:08.081Z,85.11
2022-09-23T02:28:16.143Z,84.91
2022-09-23T02:33:25.054Z,85.13
2022-09-23T02:38:35.775Z,85.22
2022-09-23T02:43:50.562Z,85.18
2022-09-23T02:49:02.440Z,85.31
2022-09-23T02:54:07.289Z,85.30
2022-09-23T02:59:11.272Z,85.54
2022-09-23T03:04:23.309Z,85.41
2022-09-23T03:09:31.338Z,85.21
2022-09-23T03:14:43.117Z,85.54
2022-09-23T03:19:51.843Z,85.48
2022-09-23T03:24:56.404Z,85.53
2022-09-23T03:30:00.641Z,85.47
2022-09-23T03:35:06.414Z,85.80
2022-09-23T03:40:13.961Z,85.91
2022-09-23T03:45:21.135Z,85.91
2022-09-23T03:50:25.791Z,86.16
2022-09-23T03:55:28.681Z,85.76
2022-09-23T04:00:31.656Z,85.85
2022-09-23T04:05:36.631Z,85.84
2022-09-23T04:10:42.720Z,86.07
2022-09-23T04:15:45.542Z,85.93
2022-09-23T04:20:49.849Z,86.18
2022-09-23T04:25:52.738Z,85.88
2022-09-23T04:30:57.804Z,85.87
2022-09-23T04:36:02.455Z,86.13
2022-09-23T04:41:05.808Z,86.18
2022-09-23T04:46:11.063Z,86.31
2022-09-23T04:51:18.384Z,86.41
2022-09-23T04:56:23.487Z,86.47
2022-09-23T05:01:28.747Z,86.58
2022-09-23T05:06:35.026Z,86.44
2022-09-23T05:11:37.898Z,86.95
2022-09-23T05:16:40.884Z,87.43
2022-09-23T05:21:45.336Z,87.11
2022-09-23T05:26:48.211Z,87.05
2022-09-23T05:31:53.252Z,87.01
2022-09-23T05:36:58.603Z,87.25
2022-09-23T05:42:01.785Z,87.24
2022-09-23T05:47:05.413Z,87.53
2022-09-23T05:52:09.955Z,87.69
2022-09-23T05:57:13.090Z,88.03
2022-09-23T06:02:16.574Z,87.69
2022-09-23T06:07:21.664Z,87.72
2022-09-23T06:12:25.188Z,87.57
2022-09-23T06:17:28.079Z,87.59
2022-09-23T06:22:36.734Z,87.62
2022-09-23T06:27:41.394Z,87.99
2022-09-23T06:32:49.939Z,88.46
2022-09-23T06:37:54.737Z,88.73
2022-09-23T06:43:06.482Z,88.76
2022-09-23T06:48:09.975Z,88.40
2022-09-23T06:53:14.396Z,88.56
2022-09-23T06:58:17.403Z,88.65
2022-09-23T07:03:20.725Z,88.14
2022-09-23T07:08:25.145Z,88.17
2022-09-23T07:13:29.406Z,87.83
2022-09-23T07:18:36.642Z,87.72
2022-09-23T07:23:41.437Z,87.42
2022-09-23T07:28:44.985Z,87.37
2022-09-23T07:33:48.316Z,87.06
2022-09-23T07:38:52.652Z,87.25
2022-09-23T07:43:59.073Z,87.02
2022-09-23T07:49:03.041Z,86.67
2022-09-23T07:54:10.734Z,86.44
2022-09-23T07:59:18.394Z,86.11
2022-09-23T08:04:26.055Z,85.57
2022-09-23T08:09:33.440Z,85.16
2022-09-23T08:14:36.976Z,84.73
2022-09-23T08:19:39.935Z,84.54
2022-09-23T08:24:44.696Z,83.84
2022-09-23T08:29:48.014Z,83.35
2022-09-23T08:34:50.868Z,83.07
2022-09-23T08:39:55.192Z,82.27
2022-09-23T08:45:02.889Z,81.66
2022-09-23T08:50:09.897Z,80.87
2022-09-23T08:55:16.102Z,80.43
2022-09-23T09:00:22.950Z,79.48
2022-09-23T09:05:31.288Z,78.52
2022-09-23T09:10:45.073Z,77.88
2022-09-23T09:15:57.418Z,77.37
2022-09-23T09:21:08.661Z,76.96
2022-09-23T09:26:21.527Z,76.73
2022-09-23T09:31:39.726Z,75.99
2022-09-23T09:36:49.197Z,75.27
2022-09-23T09:41:58.670Z,75.00
2022-09-23T09:47:17.507Z,74.64
2022-09-23T09:52:29.300Z,74.18
2022-09-23T09:57:40.648Z,74.12
2022-09-23T10:02:44.144Z,74.22
2022-09-23T10:07:48.790Z,73.26
2022-09-23T10:12:54.199Z,72.43
2022-09-23T10:17:57.400Z,71.88
2022-09-23T10:23:10.150Z,71.50
2022-09-23T10:28:43.396Z,71.39
2022-09-23T10:33:50.764Z,70.72
2022-09-23T10:39:23.949Z,70.45
2022-09-23T10:44:59.576Z,70.05
2022-09-23T10:50:32.623Z,69.09
2022-09-23T10:55:53.977Z,68.62
2022-09-23T11:01:40.031Z,67.64
2022-09-23T11:07:13.726Z,67.09
2022-09-23T11:12:37.434Z,65.63
2022-09-23T11:18:35.199Z,64.81
2022-09-23T11:24:08.505Z,63.83
2022-09-23T11:30:00.857Z,63.57
2022-09-23T11:35:20.902Z,63.27
2022-09-23T11:40:30.410Z,63.13
2022-09-23T11:45:38.322Z,62.65
2022-09-23T11:50:58.188Z,62.32
2022-09-23T11:56:07.251Z,62.68
2022-09-23T12:01:33.187Z,63.21
2022-09-23T12:06:50.218Z,62.82
2022-09-23T12:12:01.895Z,61.74
2022-09-23T12:17:31.521Z,61.01
2022-09-23T12:22:50.638Z,61.19
2022-09-23T12:27:55.682Z,61.07
2022-09-23T12:33:09.027Z,60.51
2022-09-23T12:38:20.827Z,60.88
2022-09-23T12:43:30.869Z,61.28
2022-09-23T12:49:02.824Z,60.91
2022-09-23T12:54:25.546Z,60.98
2022-09-23T12:59:31.300Z,60.38
2022-09-23T13:05:03.892Z,60.21
2022-09-23T13:10:17.135Z,60.40
2022-09-23T13:15:30.351Z,60.21
2022-09-23T13:20:41.749Z,60.10
2022-09-23T13:25:46.434Z,60.15
2022-09-23T13:30:52.131Z,60.38
2022-09-23T13:35:59.752Z,59.87
2022-09-23T13:41:08.264Z,59.58
2022-09-23T13:46:17.114Z,59.82
2022-09-23T13:51:25.054Z,59.85
2022-09-23T13:56:32.137Z,60.14
2022-09-23T14:01:43.186Z,59.98
2022-09-23T14:06:46.930Z,60.24
2022-09-23T14:11:56.136Z,60.52
2022-09-23T14:16:59.911Z,60.73
2022-09-23T14:22:02.812Z,61.06
2022-09-23T14:27:15.222Z,61.32
2022-09-23T14:32:22.657Z,61.28
2022-09-23T14:37:49.104Z,61.34
2022-09-23T14:43:04.610Z,61.72
2022-09-23T14:48:10.384Z,61.86
2022-09-23T14:53:35.090Z,62.23
2022-09-23T14:58:51.197Z,62.09
2022-09-23T15:03:59.895Z,62.53
2022-09-23T15:09:03.103Z,62.87
2022-09-23T15:14:33.581Z,63.21
2022-09-23T15:19:31.828Z,63.50
2022-09-23T15:24:43.304Z,63.83
2022-09-23T15:29:48.650Z,64.13
2022-09-23T15:34:52.031Z,64.25
2022-09-23T15:39:54.951Z,64.36
2022-09-23T15:45:01.016Z,64.86
2022-09-23T15:50:03.907Z,64.96
2022-09-23T15:55:16.191Z,65.21
2022-09-23T16:00:21.353Z,65.67
2022-09-23T16:05:30.735Z,65.71
2022-09-23T16:10:34.028Z,66.11
2022-09-23T16:15:39.157Z,66.32
2022-09-23T16:20:44.666Z,66.91
2022-09-23T16:25:50.312Z,67.23
2022-09-23T16:30:54.843Z,67.49
2022-09-23T16:36:01.001Z,67.91
2022-09-23T16:41:04.100Z,68.50
2022-09-23T16:46:12.897Z,68.47
2022-09-23T16:51:18.759Z,68.67
2022-09-23T16:56:28.199Z,69.10
2022-09-23T17:01:50.793Z,69.60
2022-09-23T17:06:55.126Z,70.23
2022-09-23T17:12:07.713Z,70.79
2022-09-23T17:17:12.186Z,71.10
2022-09-23T17:22:15.091Z,71.36
2022-09-23T17:27:18.118Z,71.66
2022-09-23T17:32:22.357Z,71.55
2022-09-23T17:37:25.317Z,71.71
2022-09-23T17:42:34.097Z,72.01
2022-09-23T17:47:41.409Z,72.30
2022-09-23T17:52:44.737Z,72.34
2022-09-23T17:57:52.814Z,72.45
2022-09-23T18:02:58.251Z,72.67
2022-09-23T18:08:05.359Z,72.73
2022-09-23T18:13:09.078Z,72.93
2022-09-23T18:18:13.405Z,73.32
2022-09-23T18:23:16.108Z,73.41
2022-09-23T18:28:18.821Z,73.54
2022-09-23T18:33:23.594Z,73.94
2022-09-23T18:38:26.369Z,73.62
2022-09-23T18:43:37.498Z,73.77
2022-09-23T18:49:01.884Z,73.58
2022-09-23T18:54:06.907Z,73.59
2022-09-23T18:59:12.460Z,73.71
2022-09-23T19:04:18.559Z,73.87
2022-09-23T19:09:21.527Z,74.08
2022-09-23T19:14:24.607Z,74.35
2022-09-23T19:19:30.092Z,74.60
2022-09-23T19:24:32.853Z,74.79
2022-09-23T19:29:35.699Z,74.92
2022-09-23T19:34:39.826Z,75.16
2022-09-23T19:39:42.524Z,75.19
2022-09-23T19:44:45.241Z,75.38
2022-09-23T19:49:49.653Z,75.84
2022-09-23T19:54:52.379Z,75.58
2022-09-23T19:59:55.092Z,75.70
2022-09-23T20:04:59.269Z,75.68
2022-09-23T20:10:02.081Z,75.90
2022-09-23T20:15:05.630Z,76.10
2022-09-23T20:20:11.805Z,76.38
2022-09-23T20:25:14.590Z,76.39
2022-09-23T20:30:17.979Z,76.78
2022-09-23T20:35:22.313Z,77.17
2022-09-23T20:40:25.101Z,77.26
2022-09-23T20:45:27.847Z,77.27
2022-09-23T20:50:31.940Z,77.30
2022-09-23T20:55:34.639Z,77.18
2022-09-23T21:00:37.427Z,77.08
2022-09-23T21:05:42.095Z,76.60
2022-09-23T21:10:45.768Z,76.43
2022-09-23T21:15:48.761Z,76.43
2022-09-23T21:20:56.692Z,76.33
2022-09-23T21:26:02.476Z,76.32
2022-09-23T21:31:07.659Z,76.08
2022-09-23T21:36:11.813Z,76.25
2022-09-23T21:41:14.700Z,75.99
2022-09-23T21:46:20.886Z,76.15
2022-09-23T21:51:26.818Z,76.18
2022-09-23T21:56:31.240Z,75.98
2022-09-23T22:01:36.236Z,76.58
2022-09-23T22:06:40.832Z,76.77
2022-09-23T22:12:01.413Z,77.17
2022-09-23T22:17:05.615Z,77.37
2022-09-23T22:22:13.255Z,77.68
2022-09-23T22:27:18.229Z,77.68
2022-09-23T22:32:54.467Z,77.93
2022-09-23T22:38:00.950Z,77.57
2022-09-23T22:43:03.660Z,77.53
2022-09-23T22:48:06.678Z,77.74
2022-09-23T22:53:11.078Z,77.67
2022-09-23T22:58:31.191Z,77.77
2022-09-23T23:03:35.524Z,77.46
2022-09-23T23:08:40.645Z,77.73
2022-09-23T23:13:43.771Z,77.77
2022-09-23T23:18:47.649Z,77.78
2022-09-23T23:23:53.657Z,77.67
2022-09-23T23:28:57.875Z,77.58
2022-09-23T23:34:00.619Z,77.60
2022-09-23T23:39:04.905Z,77.08
2022-09-23T23:44:08.247Z,77.19
2022-09-23T23:49:11.032Z,77.63
2022-09-23T23:54:15.619Z,77.80
2022-09-23T23:59:19.684Z,77.64
